Time;durP1;ratioP1;P1;durP2;ratioP2;P2;SDS_P1;SDS_P2;PMS_P1;PMS_P2;Temp;Humidity;BMP_temperature;BMP_pressure;BME280_temperature;BME280_humidity;BME280_pressure;Samples;Min_cycle;Max_cycle;Signal;HPM_P1;HPM_P2
2021/10/08 00:00:05;;;;;;;17.55;8.38;;;;;;;8.28;100.00;97471.47;5062753;28;20452;-61
2021/10/08 00:02:30;;;;;;;12.73;8.70;;;;;;;8.36;100.00;97467.91;5054915;28;20773;-61
2021/10/08 00:04:55;;;;;;;16.08;8.88;;;;;;;8.46;100.00;97472.97;5064018;28;20108;-62
2021/10/08 00:07:21;;;;;;;11.88;8.35;;;;;;;8.44;100.00;97466.25;5066537;28;21376;-61
2021/10/08 00:09:46;;;;;;;13.48;8.13;;;;;;;8.37;100.00;97475.75;5063532;28;20068;-63
2021/10/08 00:12:12;;;;;;;12.43;8.13;;;;;;;8.36;100.00;97476.09;5055941;28;20048;-63
2021/10/08 00:14:37;;;;;;;12.18;8.52;;;;;;;8.40;100.00;97477.81;5075036;28;20059;-60
2021/10/08 00:17:04;;;;;;;17.70;8.65;;;;;;;8.36;100.00;97482.34;5064046;28;20110;-59
2021/10/08 00:19:29;;;;;;;16.50;8.32;;;;;;;8.33;100.00;97474.81;5061889;28;20056;-62
2021/10/08 00:21:55;;;;;;;14.77;8.48;;;;;;;8.43;100.00;97470.94;5053068;28;20059;-61
2021/10/08 00:24:21;;;;;;;14.48;8.82;;;;;;;8.44;100.00;97469.78;5065048;28;20040;-62
2021/10/08 00:26:46;;;;;;;12.52;7.78;;;;;;;8.38;100.00;97482.81;5078947;28;20036;-62
2021/10/08 00:29:12;;;;;;;14.77;8.57;;;;;;;8.46;100.00;97475.69;5064743;28;20040;-63
2021/10/08 00:31:38;;;;;;;16.50;8.80;;;;;;;8.46;100.00;97472.19;5045376;28;20036;-63
2021/10/08 00:34:05;;;;;;;15.13;8.60;;;;;;;8.39;100.00;97478.97;5064452;28;20048;-62
2021/10/08 00:36:31;;;;;;;16.40;8.93;;;;;;;8.42;100.00;97469.31;5062826;28;20186;-62
2021/10/08 00:38:57;;;;;;;16.08;9.18;;;;;;;8.50;100.00;97475.84;5075285;28;20126;-60
2021/10/08 00:41:26;;;;;;;14.43;8.43;;;;;;;8.36;100.00;97473.38;5059250;28;20056;-62
2021/10/08 00:43:53;;;;;;;14.43;8.68;;;;;;;8.39;100.00;97473.50;5033209;28;20180;-61
2021/10/08 00:46:19;;;;;;;14.75;7.80;;;;;;;8.27;100.00;97473.41;5062089;28;20044;-62
2021/10/08 00:48:53;;;;;;;13.30;8.15;;;;;;;8.31;100.00;97468.88;5059856;28;20591;-62
2021/10/08 00:51:24;;;;;;;15.98;9.63;;;;;;;8.31;100.00;97470.81;5054544;28;20114;-61
2021/10/08 00:53:50;;;;;;;18.67;9.10;;;;;;;8.32;100.00;97467.78;5082823;28;20051;-63
2021/10/08 00:56:20;;;;;;;17.80;9.32;;;;;;;8.32;100.00;97469.69;5074473;28;20559;-63
2021/10/08 00:58:46;;;;;;;;;;;;;;;8.32;100.00;97473.22;5043868;28;20048;-58
2021/10/08 01:01:15;;;;;;;17.13;9.60;;;;;;;8.38;100.00;97474.63;5061089;28;20011;-61
2021/10/08 01:03:41;;;;;;;;;;;;;;;8.32;100.00;97470.50;5068414;28;20051;-61
2021/10/08 01:06:07;;;;;;;16.30;10.40;;;;;;;8.31;100.00;97466.16;5062784;28;19920;-62
2021/10/08 01:08:32;;;;;;;17.42;10.73;;;;;;;8.38;100.00;97474.63;5083174;28;20032;-61
2021/10/08 01:10:59;;;;;;;19.15;10.07;;;;;;;8.33;100.00;97466.63;5058685;28;20094;-64
2021/10/08 01:13:24;;;;;;;16.83;9.45;;;;;;;8.35;100.00;97458.09;5080281;28;20051;-62
2021/10/08 01:15:53;;;;;;;17.45;9.00;;;;;;;8.37;100.00;97458.56;5074489;28;20064;-62
2021/10/08 01:18:19;;;;;;;17.10;10.27;;;;;;;8.45;100.00;97451.50;5067618;28;20047;-63
2021/10/08 01:20:44;;;;;;;19.35;10.32;;;;;;;8.40;100.00;97455.97;5056185;28;20044;-63
2021/10/08 01:23:10;;;;;;;18.25;10.07;;;;;;;8.38;100.00;97449.25;5067813;28;20043;-62
2021/10/08 01:25:35;;;;;;;16.05;9.65;;;;;;;8.37;100.00;97439.47;5075096;28;20052;-62
2021/10/08 01:28:03;;;;;;;15.23;9.40;;;;;;;8.29;100.00;97443.88;5073703;28;20036;-61
2021/10/08 01:30:30;;;;;;;18.48;9.90;;;;;;;8.21;100.00;97448.25;5073167;28;20041;-63
2021/10/08 01:32:55;;;;;;;18.30;9.75;;;;;;;8.28;100.00;97461.34;5072787;28;20044;-62
2021/10/08 01:35:21;;;;;;;16.58;10.32;;;;;;;8.28;100.00;97446.91;5072170;28;20822;-62
2021/10/08 01:37:47;;;;;;;18.33;10.43;;;;;;;8.30;100.00;97444.66;5070273;28;20036;-61
2021/10/08 01:40:13;;;;;;;19.83;10.77;;;;;;;8.22;100.00;97457.25;5057411;28;20056;-61
2021/10/08 01:42:39;;;;;;;24.85;10.55;;;;;;;8.19;100.00;97444.25;5055788;28;20193;-64
2021/10/08 01:45:06;;;;;;;19.60;9.48;;;;;;;8.18;100.00;97442.66;5070366;28;20131;-58
2021/10/08 01:47:32;;;;;;;17.67;10.48;;;;;;;8.16;100.00;97451.19;5058072;28;20036;-60
2021/10/08 01:49:57;;;;;;;21.00;11.27;;;;;;;8.17;100.00;97447.31;5058130;28;20532;-61
2021/10/08 01:52:23;;;;;;;19.77;10.77;;;;;;;8.11;100.00;97448.66;5061330;28;20698;-60
2021/10/08 01:54:49;;;;;;;22.77;10.18;;;;;;;8.12;100.00;97439.34;5057626;28;20036;-61
2021/10/08 01:57:15;;;;;;;20.05;10.73;;;;;;;8.10;100.00;97432.59;5058692;28;20044;-60
2021/10/08 01:59:41;;;;;;;17.33;10.32;;;;;;;8.10;100.00;97438.84;5074534;28;20075;-60
2021/10/08 02:02:06;;;;;;;16.85;10.00;;;;;;;8.09;100.00;97437.28;5062887;28;20127;-62
2021/10/08 02:04:32;;;;;;;20.17;11.07;;;;;;;8.10;100.00;97429.88;5065967;28;20127;-58
2021/10/08 02:06:57;;;;;;;19.52;10.15;;;;;;;8.13;100.00;97440.13;5064060;28;20038;-57
2021/10/08 02:09:22;;;;;;;20.00;11.88;;;;;;;8.18;100.00;97434.50;5058094;28;20328;-59
2021/10/08 02:11:48;;;;;;;26.30;11.65;;;;;;;8.14;100.00;97439.81;5070753;28;20044;-59
2021/10/08 02:14:14;;;;;;;17.77;10.32;;;;;;;8.17;100.00;97433.66;5041612;28;20040;-61
2021/10/08 02:16:39;;;;;;;21.90;11.02;;;;;;;8.09;100.00;97436.47;5066302;28;20049;-58
2021/10/08 02:19:06;;;;;;;16.85;10.02;;;;;;;8.09;100.00;97440.00;5049123;28;20052;-61
2021/10/08 02:21:32;;;;;;;19.90;10.35;;;;;;;8.02;100.00;97439.72;5046749;28;20518;-61
2021/10/08 02:23:57;;;;;;;19.58;11.15;;;;;;;8.08;100.00;97438.41;5060803;28;20044;-60
2021/10/08 02:26:24;;;;;;;18.67;10.35;;;;;;;8.11;100.00;97428.75;5067654;28;20467;-60
2021/10/08 02:28:49;;;;;;;20.15;10.90;;;;;;;8.15;100.00;97438.66;5079347;28;20032;-60
2021/10/08 02:31:15;;;;;;;22.35;11.35;;;;;;;8.08;100.00;97435.66;5045885;28;20056;-59
2021/10/08 02:33:42;;;;;;;20.20;10.85;;;;;;;8.01;100.00;97436.22;5057364;28;20123;-61
2021/10/08 02:36:08;;;;;;;19.48;10.88;;;;;;;8.07;100.00;97442.28;5058184;28;20044;-59
2021/10/08 02:38:35;;;;;;;19.58;10.50;;;;;;;8.06;100.00;97435.19;5048078;28;20401;-59
2021/10/08 02:41:00;;;;;;;18.60;10.75;;;;;;;8.07;100.00;97431.34;5076691;28;20051;-61
2021/10/08 02:43:26;;;;;;;17.25;10.43;;;;;;;8.06;100.00;97432.47;5070938;28;20040;-60
2021/10/08 02:45:52;;;;;;;16.85;10.15;;;;;;;8.09;100.00;97436.47;5067606;28;20083;-60
2021/10/08 02:48:17;;;;;;;19.17;10.55;;;;;;;8.13;100.00;97435.47;5059810;28;20498;-61
2021/10/08 02:50:43;;;;;;;19.02;10.75;;;;;;;8.10;100.00;97443.53;5039470;28;20044;-61
2021/10/08 02:53:08;;;;;;;18.05;9.63;;;;;;;8.04;100.00;97437.47;5045268;28;20045;-61
2021/10/08 02:55:34;;;;;;;19.15;10.18;;;;;;;8.06;100.00;97434.41;5067941;28;20052;-60
2021/10/08 02:57:59;;;;;;;24.52;11.02;;;;;;;8.04;100.00;97434.75;5062127;28;20045;-59
2021/10/08 03:00:25;;;;;;;26.95;13.23;;;;;;;8.15;100.00;97422.28;5057634;28;20147;-62
2021/10/08 03:02:50;;;;;;;22.08;11.10;;;;;;;8.11;100.00;97442.41;5060449;28;20051;-61
2021/10/08 03:05:16;;;;;;;22.85;10.80;;;;;;;8.12;100.00;97438.53;5037450;28;20085;-62
2021/10/08 03:07:41;;;;;;;24.02;12.07;;;;;;;8.17;100.00;97432.88;5059596;28;20048;-60
2021/10/08 03:10:11;;;;;;;20.02;11.52;;;;;;;8.18;100.00;97429.03;5063680;28;20037;-63
2021/10/08 03:12:37;;;;;;;22.67;12.18;;;;;;;8.26;100.00;97443.72;5077475;28;20041;-64
2021/10/08 03:15:04;;;;;;;18.00;11.10;;;;;;;8.24;100.00;97420.28;5064362;28;20561;-62
2021/10/08 03:17:30;;;;;;;20.75;11.38;;;;;;;8.27;100.00;97427.03;5060979;28;20408;-62
2021/10/08 03:19:56;;;;;;;17.75;10.82;;;;;;;8.26;100.00;97428.16;5063505;28;20044;-63
2021/10/08 03:22:22;;;;;;;24.58;11.32;;;;;;;8.22;100.00;97429.94;5058118;28;20623;-61
2021/10/08 03:24:47;;;;;;;22.67;11.23;;;;;;;8.18;100.00;97426.31;5055350;28;20052;-62
2021/10/08 03:27:13;;;;;;;20.38;10.88;;;;;;;8.22;100.00;97419.81;5055817;28;20055;-62
2021/10/08 03:29:38;;;;;;;18.58;10.93;;;;;;;8.25;100.00;97421.09;5070347;28;20127;-62
2021/10/08 03:32:04;;;;;;;19.48;10.18;;;;;;;8.28;100.00;97420.41;5065469;28;20040;-61
2021/10/08 03:34:30;;;;;;;17.75;10.35;;;;;;;8.33;100.00;97427.63;5060937;28;20155;-62
2021/10/08 03:36:59;;;;;;;18.88;10.02;;;;;;;8.31;100.00;97418.97;5054494;28;20052;-62
2021/10/08 03:39:27;;;;;;;21.90;10.83;;;;;;;8.37;100.00;97423.09;5061613;28;20028;-62
2021/10/08 03:41:53;;;;;;;18.30;10.38;;;;;;;8.36;100.00;97426.97;5056080;28;20040;-62
2021/10/08 03:44:23;;;;;;;20.38;10.90;;;;;;;8.35;100.00;97423.41;5056080;28;20072;-62
2021/10/08 03:46:55;;;;;;;25.50;10.98;;;;;;;8.32;100.00;97429.56;5065379;28;20048;-61
2021/10/08 03:49:24;;;;;;;20.70;11.90;;;;;;;8.33;100.00;97438.53;5060860;28;20052;-61
2021/10/08 03:51:51;;;;;;;21.85;11.60;;;;;;;8.38;100.00;97433.66;5073268;28;20068;-60
2021/10/08 03:54:19;;;;;;;19.33;10.93;;;;;;;8.36;100.00;97430.47;5056134;28;20050;-62
2021/10/08 03:56:45;;;;;;;24.63;12.23;;;;;;;8.40;100.00;97438.78;5065943;28;20033;-62
2021/10/08 03:59:11;;;;;;;18.83;10.88;;;;;;;8.30;100.00;97442.75;5067915;28;20079;-59
2021/10/08 04:01:37;;;;;;;24.50;12.68;;;;;;;8.42;100.00;97434.63;5065594;28;20493;-62
2021/10/08 04:04:05;;;;;;;23.58;11.55;;;;;;;8.42;100.00;97442.81;5054600;28;20053;-58
2021/10/08 04:06:34;;;;;;;21.90;11.45;;;;;;;8.34;100.00;97442.88;5032996;28;20098;-60
2021/10/08 04:09:03;;;;;;;17.88;10.38;;;;;;;8.28;100.00;97441.47;5075138;28;20040;-60
2021/10/08 04:11:29;;;;;;;22.10;11.75;;;;;;;8.23;100.00;97442.47;5073765;28;20078;-62
2021/10/08 04:13:55;;;;;;;21.00;11.70;;;;;;;8.18;100.00;97448.13;5077894;28;20063;-61
2021/10/08 04:16:20;;;;;;;24.65;13.45;;;;;;;8.19;100.00;97446.97;5067852;28;20067;-60
2021/10/08 04:18:46;;;;;;;22.23;13.70;;;;;;;8.17;100.00;97444.59;5055272;28;20059;-62
2021/10/08 04:21:12;;;;;;;28.08;14.35;;;;;;;8.19;100.00;97442.34;5049060;28;20052;-61
2021/10/08 04:23:38;;;;;;;23.98;12.40;;;;;;;8.14;100.00;97445.25;5045105;28;20131;-60
2021/10/08 04:26:04;;;;;;;24.38;12.20;;;;;;;8.19;100.00;97446.97;5060262;28;20076;-60
2021/10/08 04:28:30;;;;;;;22.33;12.77;;;;;;;8.14;100.00;97448.00;5068617;28;20139;-61
2021/10/08 04:30:58;;;;;;;22.90;12.23;;;;;;;8.21;100.00;97439.25;5027869;28;20045;-62
2021/10/08 04:33:26;;;;;;;26.40;12.98;;;;;;;8.24;100.00;97433.16;5047489;28;20682;-62
2021/10/08 04:35:55;;;;;;;19.67;11.23;;;;;;;8.24;100.00;97441.31;5058212;28;20045;-63
2021/10/08 04:38:21;;;;;;;24.05;13.93;;;;;;;8.28;100.00;97444.97;5036935;28;20433;-62
2021/10/08 04:40:47;;;;;;;24.75;12.70;;;;;;;8.31;100.00;97451.72;5062769;28;20094;-62
2021/10/08 04:43:12;;;;;;;22.70;12.65;;;;;;;8.27;100.00;97440.66;5071233;28;20704;-62
2021/10/08 04:45:38;;;;;;;27.10;13.88;;;;;;;8.32;100.00;97436.94;5087773;28;20093;-62
2021/10/08 04:48:03;;;;;;;24.90;12.25;;;;;;;8.34;100.00;97442.88;5065379;28;20080;-62
2021/10/08 04:50:29;;;;;;;24.13;12.73;;;;;;;8.36;100.00;97435.94;5057100;28;20040;-62
2021/10/08 04:52:55;;;;;;;27.73;12.88;;;;;;;8.37;100.00;97437.53;5067071;28;20044;-63
2021/10/08 04:55:20;;;;;;;27.17;13.65;;;;;;;8.32;100.00;97434.19;5069404;28;20164;-62
2021/10/08 04:57:46;;;;;;;27.95;13.57;;;;;;;8.30;100.00;97436.47;5081990;28;20447;-60
2021/10/08 05:00:12;;;;;;;24.73;12.60;;;;;;;8.28;100.00;97431.34;5073984;28;20068;-61
2021/10/08 05:02:38;;;;;;;23.02;13.15;;;;;;;8.26;100.00;97439.06;5061933;28;20041;-60
2021/10/08 05:05:04;;;;;;;24.25;13.20;;;;;;;8.19;100.00;97428.69;5064705;28;20052;-60
2021/10/08 05:07:30;;;;;;;26.83;14.10;;;;;;;8.29;100.00;97435.69;5082277;28;20044;-60
2021/10/08 05:09:56;;;;;;;24.75;13.20;;;;;;;8.19;100.00;97433.34;5073505;28;20104;-60
2021/10/08 05:12:25;;;;;;;25.73;13.52;;;;;;;8.28;100.00;97444.97;5039994;28;21590;-60
2021/10/08 05:14:52;;;;;;;25.45;13.52;;;;;;;8.28;100.00;97436.78;5066666;28;20068;-60
2021/10/08 05:17:18;;;;;;;30.98;14.60;;;;;;;8.23;100.00;97450.66;5057812;28;20045;-63
2021/10/08 05:19:43;;;;;;;33.22;15.48;;;;;;;8.33;100.00;97442.06;5057948;28;20053;-60
2021/10/08 05:22:09;;;;;;;26.48;14.88;;;;;;;8.33;100.00;97436.59;5052780;28;20050;-61
2021/10/08 05:24:36;;;;;;;28.48;14.38;;;;;;;8.33;100.00;97435.81;5056549;28;20036;-61
2021/10/08 05:27:02;;;;;;;29.33;15.82;;;;;;;8.34;100.00;97442.88;5060962;28;20143;-61
2021/10/08 05:29:27;;;;;;;26.70;14.77;;;;;;;8.43;100.00;97446.34;5069764;28;20040;-60
2021/10/08 05:31:53;;;;;;;28.75;13.98;;;;;;;8.43;100.00;97438.16;5072920;28;20132;-61
2021/10/08 05:34:19;;;;;;;23.75;13.82;;;;;;;8.44;100.00;97441.69;5061539;28;20117;-61
2021/10/08 05:36:48;;;;;;;23.45;13.98;;;;;;;8.46;100.00;97442.16;5062994;28;20107;-61
2021/10/08 05:39:14;;;;;;;28.88;14.85;;;;;;;8.48;100.00;97448.88;5023516;28;20045;-59
2021/10/08 05:41:40;;;;;;;29.10;16.10;;;;;;;8.48;100.00;97435.25;5040868;28;20048;-59
2021/10/08 05:44:07;;;;;;;23.20;13.82;;;;;;;8.48;100.00;97448.88;5036684;28;20779;-61
2021/10/08 05:46:33;;;;;;;30.75;15.50;;;;;;;8.50;100.00;97449.34;5032838;28;20054;-60
2021/10/08 05:48:58;;;;;;;27.15;14.20;;;;;;;8.52;100.00;97446.28;5057450;28;20409;-61
2021/10/08 05:51:23;;;;;;;27.25;14.82;;;;;;;8.51;100.00;97441.94;5062558;28;20794;-63
2021/10/08 05:53:49;;;;;;;25.75;14.55;;;;;;;8.56;100.00;97439.03;5065872;28;20520;-62
2021/10/08 05:56:14;;;;;;;25.65;13.82;;;;;;;8.54;100.00;97442.06;5066895;28;20401;-62
2021/10/08 05:58:40;;;;;;;30.27;15.48;;;;;;;8.60;100.00;97440.72;5072265;28;20052;-63
2021/10/08 06:01:05;;;;;;;26.10;14.63;;;;;;;8.62;100.00;97443.13;5065490;28;20064;-62
2021/10/08 06:03:31;;;;;;;31.73;15.40;;;;;;;8.69;100.00;97448.06;5067540;28;20070;-62
2021/10/08 06:05:56;;;;;;;28.77;15.02;;;;;;;8.71;100.00;97443.84;5067724;28;20052;-62
2021/10/08 06:08:21;;;;;;;31.52;15.23;;;;;;;8.76;100.00;97453.75;5065696;28;20665;-62
2021/10/08 06:10:47;;;;;;;28.42;15.25;;;;;;;8.80;100.00;97457.41;5060610;28;20048;-62
2021/10/08 06:13:13;;;;;;;31.40;15.63;;;;;;;8.84;100.00;97458.38;5037094;28;20075;-62
2021/10/08 06:15:38;;;;;;;33.05;14.10;;;;;;;8.86;100.00;97460.72;5058656;28;20080;-62
2021/10/08 06:18:04;;;;;;;27.92;14.73;;;;;;;8.94;100.00;97457.13;5056462;28;20140;-60
2021/10/08 06:20:29;;;;;;;27.85;15.90;;;;;;;8.97;100.00;97465.44;5071591;28;20628;-61
2021/10/08 06:22:55;;;;;;;29.17;16.40;;;;;;;8.98;100.00;97461.59;5060042;28;20127;-63
2021/10/08 06:25:20;;;;;;;27.00;15.98;;;;;;;9.03;100.00;97467.97;5062300;28;20050;-63
2021/10/08 06:27:47;;;;;;;28.45;16.80;;;;;;;9.04;100.00;97467.63;5060360;28;20040;-63
2021/10/08 06:30:13;;;;;;;33.08;16.13;;;;;;;9.09;100.00;97474.81;5061906;28;20045;-62
2021/10/08 06:32:39;;;;;;;29.27;16.75;;;;;;;9.14;100.00;97475.38;5066685;28;20044;-63
2021/10/08 06:35:05;;;;;;;33.65;16.02;;;;;;;9.17;100.00;97477.44;5046774;28;20068;-60
2021/10/08 06:37:31;;;;;;;29.25;16.88;;;;;;;9.23;100.00;97464.34;5072126;28;20036;-60
2021/10/08 06:39:56;;;;;;;29.83;16.40;;;;;;;9.27;100.00;97462.53;5069485;28;20697;-60
2021/10/08 06:42:24;;;;;;;33.33;16.65;;;;;;;9.29;100.00;97473.13;5072683;28;21243;-61
2021/10/08 06:44:55;;;;;;;34.03;16.67;;;;;;;9.33;100.00;97474.88;5070757;28;20043;-61
2021/10/08 06:47:21;;;;;;;32.25;14.60;;;;;;;9.45;100.00;97463.13;5051662;28;20062;-61
2021/10/08 06:49:46;;;;;;;31.23;15.32;;;;;;;9.45;100.00;97471.34;5060071;28;20517;-61
2021/10/08 06:52:12;;;;;;;29.88;14.63;;;;;;;9.54;100.00;97471.22;5053361;28;20119;-61
2021/10/08 06:54:37;;;;;;;30.83;15.07;;;;;;;9.60;100.00;97469.88;5070552;28;20040;-60
2021/10/08 06:57:03;;;;;;;33.58;16.40;;;;;;;9.74;100.00;97470.34;5056781;28;20041;-60
2021/10/08 06:59:29;;;;;;;29.10;14.85;;;;;;;9.77;100.00;97475.09;5060923;28;20165;-60
2021/10/08 07:01:54;;;;;;;29.75;15.43;;;;;;;9.72;100.00;97469.06;5033613;28;20036;-61
2021/10/08 07:04:21;;;;;;;25.33;14.60;;;;;;;9.72;100.00;97460.88;5063366;28;20047;-60
2021/10/08 07:06:46;;;;;;;27.33;14.88;;;;;;;9.79;100.00;97468.50;5065333;28;20040;-61
2021/10/08 07:09:12;;;;;;;26.98;14.27;;;;;;;9.92;100.00;97464.63;5062991;28;20527;-61
2021/10/08 07:11:38;;;;;;;26.60;15.50;;;;;;;9.86;100.00;97461.31;5060388;28;20110;-62
2021/10/08 07:14:03;;;;;;;28.85;14.57;;;;;;;9.88;100.00;97469.19;5060681;28;20131;-61
2021/10/08 07:16:29;;;;;;;33.08;15.95;;;;;;;9.87;100.00;97470.34;5058439;28;20040;-62
2021/10/08 07:18:56;;;;;;;31.67;14.60;;;;;;;9.93;100.00;97463.47;5058725;28;20099;-62
2021/10/08 07:21:23;;;;;;;30.08;14.23;;;;;;;9.98;100.00;97466.00;5053473;28;20049;-62
2021/10/08 07:23:49;;;;;;;33.80;14.05;;;;;;;10.02;100.00;97466.91;5057642;28;20059;-64
2021/10/08 07:26:16;;;;;;;34.58;15.52;;;;;;;10.11;100.00;97472.25;5039575;28;20041;-62
2021/10/08 07:28:42;;;;;;;27.92;14.82;;;;;;;10.04;100.00;97469.28;5017904;28;20079;-60
2021/10/08 07:31:09;;;;;;;29.13;15.02;;;;;;;10.05;100.00;97471.69;5033384;28;20045;-62
2021/10/08 07:33:37;;;;;;;25.08;14.27;;;;;;;10.09;100.00;97469.84;5037116;28;20094;-61
2021/10/08 07:36:04;;;;;;;27.15;15.40;;;;;;;10.11;100.00;97466.78;5033738;28;20045;-61
2021/10/08 07:38:30;;;;;;;24.40;13.40;;;;;;;10.19;100.00;97471.34;5034817;28;20045;-61
2021/10/08 07:40:56;;;;;;;25.63;13.73;;;;;;;10.20;100.00;97470.19;5033639;28;20063;-59
2021/10/08 07:43:22;;;;;;;24.45;12.82;;;;;;;10.22;100.00;97464.34;5033597;28;20037;-63
2021/10/08 07:45:47;;;;;;;26.15;13.55;;;;;;;10.31;100.00;97463.09;5039394;28;20059;-61
2021/10/08 07:48:12;;;;;;;27.85;13.85;;;;;;;10.29;100.00;97472.78;5033832;28;20105;-61
2021/10/08 07:50:38;;;;;;;26.90;13.13;;;;;;;10.36;100.00;97469.50;5038957;28;20428;-59
2021/10/08 07:53:04;;;;;;;28.17;12.70;;;;;;;10.39;100.00;97466.03;5016953;28;20143;-62
2021/10/08 07:55:30;;;;;;;29.75;14.13;;;;;;;10.43;100.00;97467.75;5037889;28;20393;-62
2021/10/08 07:57:55;;;;;;;30.20;14.50;;;;;;;10.44;100.00;97465.81;5034483;28;20041;-59
2021/10/08 08:00:21;;;;;;;27.88;14.27;;;;;;;10.55;100.00;97471.59;5033790;28;20571;-61
2021/10/08 08:02:46;;;;;;;24.42;13.05;;;;;;;10.56;100.00;97467.72;5055896;28;20085;-61
2021/10/08 08:05:12;;;;;;;24.30;12.48;;;;;;;10.60;100.00;97457.66;5052007;28;20071;-63
2021/10/08 08:07:37;;;;;;;21.85;12.43;;;;;;;10.68;100.00;97457.50;5057037;28;20047;-63
2021/10/08 08:10:05;;;;;;;23.35;11.95;;;;;;;10.78;100.00;97452.69;5055923;28;20072;-62
2021/10/08 08:12:30;;;;;;;25.35;11.90;;;;;;;10.79;100.00;97452.34;5057941;28;20048;-62
2021/10/08 08:14:56;;;;;;;21.58;11.38;;;;;;;10.80;100.00;97451.16;5058386;28;20558;-60
2021/10/08 08:17:21;;;;;;;22.40;11.95;;;;;;;10.78;99.78;97453.47;5052683;28;20072;-60
2021/10/08 08:19:47;;;;;;;18.40;10.52;;;;;;;10.93;99.06;97448.38;5057543;28;20040;-61
2021/10/08 08:22:13;;;;;;;23.70;11.75;;;;;;;10.87;98.62;97443.13;5050486;28;20036;-61
2021/10/08 08:24:39;;;;;;;19.15;10.63;;;;;;;11.10;97.70;97450.81;5058047;28;20047;-62
2021/10/08 08:27:04;;;;;;;23.10;10.18;;;;;;;11.16;97.43;97441.16;5053070;28;20033;-61
2021/10/08 08:29:30;;;;;;;20.63;10.65;;;;;;;11.27;97.37;97449.66;5039431;28;20072;-61
2021/10/08 08:31:55;;;;;;;22.35;11.23;;;;;;;11.41;95.41;97443.75;5057296;28;20544;-62
2021/10/08 08:34:22;;;;;;;21.35;10.82;;;;;;;11.43;96.02;97446.94;5051390;28;20857;-61
2021/10/08 08:36:48;;;;;;;18.58;10.02;;;;;;;11.51;95.14;97434.22;5060640;28;20060;-61
2021/10/08 08:39:15;;;;;;;21.65;12.00;;;;;;;11.50;96.20;97449.84;5060452;28;20072;-62
2021/10/08 08:41:41;;;;;;;19.35;9.85;;;;;;;11.55;95.80;97444.09;5067379;28;20046;-61
2021/10/08 08:44:06;;;;;;;21.58;10.75;;;;;;;11.37;95.67;97440.91;5059247;28;20044;-59
2021/10/08 08:46:33;;;;;;;23.52;10.90;;;;;;;11.36;96.52;97444.81;5065127;28;20107;-60
2021/10/08 08:49:00;;;;;;;22.25;12.32;;;;;;;11.35;95.34;97439.69;5054660;28;20041;-61
2021/10/08 08:51:27;;;;;;;21.30;11.70;;;;;;;11.34;96.03;97446.31;5036944;28;20114;-62
2021/10/08 08:53:54;;;;;;;23.95;10.90;;;;;;;11.47;95.36;97450.56;5071940;28;20563;-59
2021/10/08 08:56:19;;;;;;;18.98;9.90;;;;;;;11.50;95.30;97438.09;5052082;28;20113;-60
2021/10/08 08:58:45;;;;;;;23.02;11.25;;;;;;;11.33;94.95;97442.78;5070868;28;20435;-60
2021/10/08 09:01:10;;;;;;;21.63;10.23;;;;;;;11.41;95.16;97441.00;5059706;28;20072;-61
2021/10/08 09:03:36;;;;;;;22.77;11.05;;;;;;;11.51;95.28;97451.47;5068410;28;20036;-62
2021/10/08 09:06:01;;;;;;;23.10;10.63;;;;;;;11.73;94.82;97446.47;5042721;28;20040;-61
2021/10/08 09:08:34;;;;;;;19.48;9.75;;;;;;;12.03;93.50;97441.34;5055711;28;20037;-61
2021/10/08 09:11:02;;;;;;;21.83;10.50;;;;;;;12.16;90.96;97437.31;5045330;28;20044;-60
2021/10/08 09:13:28;;;;;;;20.77;10.50;;;;;;;12.21;90.09;97439.78;5055671;28;20044;-60
2021/10/08 09:15:56;;;;;;;19.92;9.50;;;;;;;12.37;88.08;97428.72;5040981;28;20048;-62
2021/10/08 09:18:29;;;;;;;21.33;9.30;;;;;;;12.41;86.85;97426.06;5053638;28;20646;-61
2021/10/08 09:21:04;;;;;;;18.42;9.63;;;;;;;12.42;87.03;97424.88;5061413;28;20519;-60
2021/10/08 09:23:33;;;;;;;13.35;7.72;;;;;;;12.41;86.79;97424.09;5059372;28;20047;-60
2021/10/08 09:26:00;;;;;;;14.32;8.63;;;;;;;12.73;84.66;97409.41;5063683;28;20489;-60
2021/10/08 09:28:26;;;;;;;16.40;8.82;;;;;;;12.71;85.36;97419.97;5058495;28;20425;-62
2021/10/08 09:30:54;;;;;;;16.23;7.85;;;;;;;13.01;85.65;97422.91;5059339;28;20041;-62
2021/10/08 09:33:21;;;;;;;13.32;8.10;;;;;;;13.27;82.33;97424.13;5053050;28;20564;-60
2021/10/08 09:35:49;;;;;;;14.95;7.97;;;;;;;13.03;82.48;97411.53;5058973;28;20052;-60
2021/10/08 09:38:16;;;;;;;15.77;8.60;;;;;;;13.22;82.36;97399.66;5057001;28;20073;-60
2021/10/08 09:40:47;;;;;;;13.27;7.32;;;;;;;13.41;82.99;97427.16;5057484;28;20084;-61
2021/10/08 09:43:23;;;;;;;16.48;7.38;;;;;;;13.91;81.75;97416.94;5052763;28;20544;-62
2021/10/08 09:45:54;;;;;;;13.18;7.00;;;;;;;14.96;78.23;97421.03;5060139;28;20131;-61
2021/10/08 09:48:24;;;;;;;17.88;7.07;;;;;;;14.59;78.56;97417.06;5054562;28;20067;-63
2021/10/08 09:51:00;;;;;;;13.85;8.02;;;;;;;14.58;76.03;97418.22;5058807;28;20075;-59
2021/10/08 09:53:26;;;;;;;17.65;9.40;;;;;;;14.16;78.13;97410.97;5054235;28;20048;-61
2021/10/08 09:55:52;;;;;;;17.88;9.38;;;;;;;14.07;80.15;97411.25;5061194;28;20045;-60
2021/10/08 09:58:20;;;;;;;18.13;9.30;;;;;;;14.39;77.69;97404.59;5053431;28;20135;-63
2021/10/08 10:00:57;;;;;;;16.50;8.77;;;;;;;14.42;77.83;97406.59;5058310;28;20041;-62
2021/10/08 10:03:22;;;;;;;12.85;8.13;;;;;;;14.30;79.01;97407.63;5051007;28;21313;-61
2021/10/08 10:05:47;;;;;;;18.00;9.15;;;;;;;14.30;78.66;97405.66;5061713;28;20041;-61
2021/10/08 10:08:13;;;;;;;16.15;9.77;;;;;;;14.03;81.36;97415.94;5055361;28;20076;-61
2021/10/08 10:10:40;;;;;;;13.63;8.75;;;;;;;14.61;79.45;97419.47;5053631;28;20047;-60
2021/10/08 10:13:08;;;;;;;15.45;9.13;;;;;;;14.44;78.24;97413.34;5052679;28;20109;-60
2021/10/08 10:15:35;;;;;;;14.32;8.95;;;;;;;15.06;76.02;97415.63;5059357;28;20044;-59
2021/10/08 10:18:08;;;;;;;15.30;9.50;;;;;;;14.73;78.27;97410.94;5055359;28;20036;-63
2021/10/08 10:20:37;;;;;;;13.60;8.20;;;;;;;15.09;77.96;97403.03;5059354;28;20047;-62
2021/10/08 10:23:07;;;;;;;17.17;9.43;;;;;;;14.82;78.91;97405.09;5051734;28;20076;-63
2021/10/08 10:25:34;;;;;;;17.75;9.25;;;;;;;14.55;77.89;97410.72;5060050;28;20040;-62
2021/10/08 10:27:59;;;;;;;18.20;10.00;;;;;;;14.73;78.53;97408.19;5056431;28;20055;-63
2021/10/08 10:30:25;;;;;;;15.48;8.88;;;;;;;14.93;76.87;97410.75;5055804;28;20653;-63
2021/10/08 10:32:51;;;;;;;14.50;9.60;;;;;;;14.82;77.61;97394.06;5072514;28;20106;-61
2021/10/08 10:35:44;;;;;;;15.23;8.93;;;;;;;15.27;76.18;97408.75;5066993;28;20094;-60
2021/10/08 10:38:30;;;;;;;17.95;10.07;;;;;;;15.63;72.63;97414.56;5053710;28;20040;-63
2021/10/08 10:41:08;;;;;;;16.58;9.90;;;;;;;14.70;76.45;97403.41;5057838;28;20079;-64
2021/10/08 10:43:45;;;;;;;18.92;9.85;;;;;;;15.02;73.71;97402.97;5058125;28;20400;-61
2021/10/08 10:46:26;;;;;;;18.80;10.30;;;;;;;14.71;76.48;97405.81;5044021;28;20037;-62
2021/10/08 10:49:18;;;;;;;15.05;9.10;;;;;;;14.75;77.23;97407.78;5057247;28;20132;-61
2021/10/08 10:52:08;;;;;;;18.15;10.02;;;;;;;14.96;77.25;97402.50;5053830;28;20136;-66
2021/10/08 10:54:34;;;;;;;17.67;9.50;;;;;;;15.41;75.80;97408.06;5060963;28;20032;-60
2021/10/08 10:57:00;;;;;;;18.15;10.70;;;;;;;15.10;76.16;97399.88;5060830;28;20043;-61
2021/10/08 10:59:31;;;;;;;19.25;10.88;;;;;;;14.80;75.93;97397.25;5052402;28;20060;-63
2021/10/08 11:02:03;;;;;;;21.33;10.90;;;;;;;14.99;75.31;97403.72;5054057;28;20559;-64
2021/10/08 11:04:29;;;;;;;20.27;10.35;;;;;;;14.78;77.39;97394.03;5056523;28;20044;-63
2021/10/08 11:07:10;;;;;;;21.83;11.18;;;;;;;15.03;75.83;97390.75;5058538;28;20051;-64
2021/10/08 11:09:37;;;;;;;30.35;11.75;;;;;;;14.53;72.25;97391.78;5048920;28;20397;-67
2021/10/08 11:12:29;;;;;;;25.27;11.30;;;;;;;14.44;75.47;97388.53;5050537;28;20033;-63
2021/10/08 11:17:57;;;;;;;21.88;10.65;;;;;;;14.91;74.26;97384.34;5058213;28;20059;-66
2021/10/08 11:20:25;;;;;;;19.65;11.13;;;;;;;15.34;72.45;97386.72;5050363;28;20052;-67